Terminal Aerodrome Forecast
Issued by NWS

Home | Current Version | Previous Version | Text Only | Print | Product List | Glossary On
Versions: 1 2 3 4 5 6 7 8 9 10 11 12 13 14 15 16 17 18
000
FTUS45 KBOI 182333
TAFBKE
TAF
KBKE 182333Z 1900/1924 10015G25KT 1SM -SN BR BKN010 OVC020
      TEMPO 1900/1904 1/2SM SN OVC010
     FM190900 12013KT 4SM -SHSN BR BKN020 OVC080
     FM191500 VRB05KT 3SM BR BKN100=

USA.gov is the U.S. government's official web portal to all federal, state and local government web resources and services.